sensor_id;sensor_type;location;lat;lon;timestamp;temperature;humidity
24686;DHT22;12804;51.176;4.452;2023-04-03T00:01:57;4.00;99.90
24686;DHT22;12804;51.176;4.452;2023-04-03T00:04:22;4.10;99.90
24686;DHT22;12804;51.176;4.452;2023-04-03T00:06:48;4.10;99.90
24686;DHT22;12804;51.176;4.452;2023-04-03T00:09:14;4.00;99.90
24686;DHT22;12804;51.176;4.452;2023-04-03T00:11:40;4.00;99.90
24686;DHT22;12804;51.176;4.452;2023-04-03T00:14:06;4.00;99.90
24686;DHT22;12804;51.176;4.452;2023-04-03T00:16:32;4.00;99.90
24686;DHT22;12804;51.176;4.452;2023-04-03T00:18:57;4.10;99.90
24686;DHT22;12804;51.176;4.452;2023-04-03T00:21:23;4.00;99.90
24686;DHT22;12804;51.176;4.452;2023-04-03T00:23:49;4.10;99.90
24686;DHT22;12804;51.176;4.452;2023-04-03T00:26:15;4.00;99.90
24686;DHT22;12804;51.176;4.452;2023-04-03T00:28:41;4.10;99.90
24686;DHT22;12804;51.176;4.452;2023-04-03T00:31:07;4.00;99.90
24686;DHT22;12804;51.176;4.452;2023-04-03T00:33:37;4.00;99.90
24686;DHT22;12804;51.176;4.452;2023-04-03T00:36:08;3.90;99.90
24686;DHT22;12804;51.176;4.452;2023-04-03T00:38:35;3.90;99.90
24686;DHT22;12804;51.176;4.452;2023-04-03T00:41:01;3.90;99.90
24686;DHT22;12804;51.176;4.452;2023-04-03T00:43:27;3.80;99.90
24686;DHT22;12804;51.176;4.452;2023-04-03T00:45:55;3.90;99.90
24686;DHT22;12804;51.176;4.452;2023-04-03T00:48:27;3.80;99.90
24686;DHT22;12804;51.176;4.452;2023-04-03T00:50:54;3.70;99.90
24686;DHT22;12804;51.176;4.452;2023-04-03T00:53:35;3.70;99.90
24686;DHT22;12804;51.176;4.452;2023-04-03T00:56:06;3.80;99.90
24686;DHT22;12804;51.176;4.452;2023-04-03T00:58:37;3.70;99.90
24686;DHT22;12804;51.176;4.452;2023-04-03T01:01:10;3.60;99.90
24686;DHT22;12804;51.176;4.452;2023-04-03T01:03:38;3.60;99.90
24686;DHT22;12804;51.176;4.452;2023-04-03T01:06:05;3.60;99.90
24686;DHT22;12804;51.176;4.452;2023-04-03T01:08:31;3.60;99.90
24686;DHT22;12804;51.176;4.452;2023-04-03T01:10:57;3.50;99.90
24686;DHT22;12804;51.176;4.452;2023-04-03T01:13:32;3.50;99.90
24686;DHT22;12804;51.176;4.452;2023-04-03T01:16:03;3.40;99.90
24686;DHT22;12804;51.176;4.452;2023-04-03T01:18:30;3.60;99.90
24686;DHT22;12804;51.176;4.452;2023-04-03T01:26:39;3.50;99.90
24686;DHT22;12804;51.176;4.452;2023-04-03T01:29:05;3.50;99.90
24686;DHT22;12804;51.176;4.452;2023-04-03T01:34:08;3.60;99.90
24686;DHT22;12804;51.176;4.452;2023-04-03T01:36:34;3.50;99.90
24686;DHT22;12804;51.176;4.452;2023-04-03T01:39:01;3.50;99.90
24686;DHT22;12804;51.176;4.452;2023-04-03T01:41:28;3.50;99.90
24686;DHT22;12804;51.176;4.452;2023-04-03T01:44:00;3.50;99.90
24686;DHT22;12804;51.176;4.452;2023-04-03T01:46:26;3.60;99.90
24686;DHT22;12804;51.176;4.452;2023-04-03T01:48:52;3.60;99.90
24686;DHT22;12804;51.176;4.452;2023-04-03T01:51:18;3.50;99.90
24686;DHT22;12804;51.176;4.452;2023-04-03T01:53:44;3.50;99.90
24686;DHT22;12804;51.176;4.452;2023-04-03T01:56:10;3.40;99.90
24686;DHT22;12804;51.176;4.452;2023-04-03T01:58:38;3.40;99.90
24686;DHT22;12804;51.176;4.452;2023-04-03T02:01:05;3.50;99.90
24686;DHT22;12804;51.176;4.452;2023-04-03T02:03:31;3.40;99.90
24686;DHT22;12804;51.176;4.452;2023-04-03T02:05:58;3.40;99.90
24686;DHT22;12804;51.176;4.452;2023-04-03T02:08:24;3.30;99.90
24686;DHT22;12804;51.176;4.452;2023-04-03T02:10:52;3.30;99.90
24686;DHT22;12804;51.176;4.452;2023-04-03T02:13:18;3.30;99.90
24686;DHT22;12804;51.176;4.452;2023-04-03T02:15:45;3.40;99.90
24686;DHT22;12804;51.176;4.452;2023-04-03T02:18:16;3.30;99.90
24686;DHT22;12804;51.176;4.452;2023-04-03T02:20:42;3.30;99.90
24686;DHT22;12804;51.176;4.452;2023-04-03T02:23:08;3.10;99.90
24686;DHT22;12804;51.176;4.452;2023-04-03T02:25:34;3.10;99.90
24686;DHT22;12804;51.176;4.452;2023-04-03T02:28:00;3.10;99.90
24686;DHT22;12804;51.176;4.452;2023-04-03T02:30:26;3.10;99.90
24686;DHT22;12804;51.176;4.452;2023-04-03T02:32:52;3.10;99.90
24686;DHT22;12804;51.176;4.452;2023-04-03T02:35:20;3.00;99.90
24686;DHT22;12804;51.176;4.452;2023-04-03T02:37:46;3.00;99.90
24686;DHT22;12804;51.176;4.452;2023-04-03T02:40:13;3.00;99.90
24686;DHT22;12804;51.176;4.452;2023-04-03T02:42:39;2.90;99.90
24686;DHT22;12804;51.176;4.452;2023-04-03T02:45:05;3.00;99.90
24686;DHT22;12804;51.176;4.452;2023-04-03T02:47:34;2.90;99.90
24686;DHT22;12804;51.176;4.452;2023-04-03T02:50:00;2.90;99.90
24686;DHT22;12804;51.176;4.452;2023-04-03T02:52:26;3.00;99.90
24686;DHT22;12804;51.176;4.452;2023-04-03T02:54:55;3.00;99.90
24686;DHT22;12804;51.176;4.452;2023-04-03T02:57:21;3.00;99.90
24686;DHT22;12804;51.176;4.452;2023-04-03T02:59:46;2.90;99.90
24686;DHT22;12804;51.176;4.452;2023-04-03T03:02:12;2.90;99.90
24686;DHT22;12804;51.176;4.452;2023-04-03T03:04:38;3.00;99.90
24686;DHT22;12804;51.176;4.452;2023-04-03T03:07:04;2.90;99.90
24686;DHT22;12804;51.176;4.452;2023-04-03T03:09:31;2.90;99.90
24686;DHT22;12804;51.176;4.452;2023-04-03T03:11:58;2.90;99.90
24686;DHT22;12804;51.176;4.452;2023-04-03T03:14:23;2.80;99.90
24686;DHT22;12804;51.176;4.452;2023-04-03T03:16:49;2.80;99.90
24686;DHT22;12804;51.176;4.452;2023-04-03T03:19:19;2.80;99.90
24686;DHT22;12804;51.176;4.452;2023-04-03T03:21:45;2.80;99.90
24686;DHT22;12804;51.176;4.452;2023-04-03T03:24:11;2.80;99.90
24686;DHT22;12804;51.176;4.452;2023-04-03T03:26:37;2.80;99.90
24686;DHT22;12804;51.176;4.452;2023-04-03T03:29:03;2.70;99.90
24686;DHT22;12804;51.176;4.452;2023-04-03T03:31:29;2.70;99.90
24686;DHT22;12804;51.176;4.452;2023-04-03T03:33:56;2.80;99.90
24686;DHT22;12804;51.176;4.452;2023-04-03T03:36:22;2.70;99.90
24686;DHT22;12804;51.176;4.452;2023-04-03T03:38:48;2.80;99.90
24686;DHT22;12804;51.176;4.452;2023-04-03T03:41:14;2.80;99.90
24686;DHT22;12804;51.176;4.452;2023-04-03T03:43:42;2.70;99.90
24686;DHT22;12804;51.176;4.452;2023-04-03T03:46:08;2.70;99.90
24686;DHT22;12804;51.176;4.452;2023-04-03T03:48:35;2.80;99.90
24686;DHT22;12804;51.176;4.452;2023-04-03T03:51:01;2.80;99.90
24686;DHT22;12804;51.176;4.452;2023-04-03T03:53:30;2.70;99.90
24686;DHT22;12804;51.176;4.452;2023-04-03T03:56:00;2.70;99.90
24686;DHT22;12804;51.176;4.452;2023-04-03T03:58:28;2.70;99.90
24686;DHT22;12804;51.176;4.452;2023-04-03T04:00:54;2.60;99.90
24686;DHT22;12804;51.176;4.452;2023-04-03T04:03:20;2.70;99.90
24686;DHT22;12804;51.176;4.452;2023-04-03T04:05:48;2.70;99.90
24686;DHT22;12804;51.176;4.452;2023-04-03T04:08:14;2.60;99.90
24686;DHT22;12804;51.176;4.452;2023-04-03T04:10:40;2.70;99.90
24686;DHT22;12804;51.176;4.452;2023-04-03T04:13:07;2.60;99.90
24686;DHT22;12804;51.176;4.452;2023-04-03T04:15:33;2.60;99.90
24686;DHT22;12804;51.176;4.452;2023-04-03T04:17:59;2.60;99.90
24686;DHT22;12804;51.176;4.452;2023-04-03T04:20:25;2.60;99.90
24686;DHT22;12804;51.176;4.452;2023-04-03T04:22:52;2.60;99.90
24686;DHT22;12804;51.176;4.452;2023-04-03T04:25:19;2.60;99.90
24686;DHT22;12804;51.176;4.452;2023-04-03T04:27:46;2.60;99.90
24686;DHT22;12804;51.176;4.452;2023-04-03T04:30:14;2.60;99.90
24686;DHT22;12804;51.176;4.452;2023-04-03T04:32:41;2.70;99.90
24686;DHT22;12804;51.176;4.452;2023-04-03T04:35:07;2.60;99.90
24686;DHT22;12804;51.176;4.452;2023-04-03T04:37:37;2.70;99.90
24686;DHT22;12804;51.176;4.452;2023-04-03T04:40:03;2.60;99.90
24686;DHT22;12804;51.176;4.452;2023-04-03T04:42:29;2.60;99.90
24686;DHT22;12804;51.176;4.452;2023-04-03T04:44:59;2.60;99.90
24686;DHT22;12804;51.176;4.452;2023-04-03T04:47:24;2.60;99.90
24686;DHT22;12804;51.176;4.452;2023-04-03T04:49:50;2.50;99.90
24686;DHT22;12804;51.176;4.452;2023-04-03T04:52:17;2.50;99.90
24686;DHT22;12804;51.176;4.452;2023-04-03T04:54:43;2.50;99.90
24686;DHT22;12804;51.176;4.452;2023-04-03T04:57:09;2.50;99.90
24686;DHT22;12804;51.176;4.452;2023-04-03T04:59:36;2.50;99.90
24686;DHT22;12804;51.176;4.452;2023-04-03T05:02:03;2.50;99.90
24686;DHT22;12804;51.176;4.452;2023-04-03T05:04:29;2.50;99.90
24686;DHT22;12804;51.176;4.452;2023-04-03T05:07:02;2.50;99.90
24686;DHT22;12804;51.176;4.452;2023-04-03T05:09:30;2.50;99.90
24686;DHT22;12804;51.176;4.452;2023-04-03T05:11:56;2.60;99.90
24686;DHT22;12804;51.176;4.452;2023-04-03T05:14:25;2.60;99.90
24686;DHT22;12804;51.176;4.452;2023-04-03T05:16:52;2.60;99.90
24686;DHT22;12804;51.176;4.452;2023-04-03T05:19:21;2.50;99.90
24686;DHT22;12804;51.176;4.452;2023-04-03T05:21:47;2.50;99.90
24686;DHT22;12804;51.176;4.452;2023-04-03T05:24:16;2.40;99.90
24686;DHT22;12804;51.176;4.452;2023-04-03T05:26:43;2.40;99.90
24686;DHT22;12804;51.176;4.452;2023-04-03T05:29:10;2.50;99.90
24686;DHT22;12804;51.176;4.452;2023-04-03T05:31:39;2.60;99.90
24686;DHT22;12804;51.176;4.452;2023-04-03T05:34:07;2.60;99.90
24686;DHT22;12804;51.176;4.452;2023-04-03T05:36:35;2.60;99.90
24686;DHT22;12804;51.176;4.452;2023-04-03T05:39:05;2.60;99.90
24686;DHT22;12804;51.176;4.452;2023-04-03T05:41:32;2.50;99.90
24686;DHT22;12804;51.176;4.452;2023-04-03T05:43:58;2.50;99.90
24686;DHT22;12804;51.176;4.452;2023-04-03T05:46:25;2.40;99.90
24686;DHT22;12804;51.176;4.452;2023-04-03T05:48:54;2.40;99.90
24686;DHT22;12804;51.176;4.452;2023-04-03T05:51:29;2.50;99.90
24686;DHT22;12804;51.176;4.452;2023-04-03T05:54:06;2.50;99.90
24686;DHT22;12804;51.176;4.452;2023-04-03T05:56:32;2.60;99.90
24686;DHT22;12804;51.176;4.452;2023-04-03T05:58:58;2.70;99.90
24686;DHT22;12804;51.176;4.452;2023-04-03T06:01:25;2.80;99.90
24686;DHT22;12804;51.176;4.452;2023-04-03T06:03:52;2.80;99.90
24686;DHT22;12804;51.176;4.452;2023-04-03T06:06:18;3.00;99.90
24686;DHT22;12804;51.176;4.452;2023-04-03T06:08:44;3.10;99.90
24686;DHT22;12804;51.176;4.452;2023-04-03T06:11:11;3.10;99.90
24686;DHT22;12804;51.176;4.452;2023-04-03T06:13:37;3.20;99.90
24686;DHT22;12804;51.176;4.452;2023-04-03T06:16:04;3.20;99.90
24686;DHT22;12804;51.176;4.452;2023-04-03T06:18:30;3.40;99.90
24686;DHT22;12804;51.176;4.452;2023-04-03T06:20:56;3.30;99.90
24686;DHT22;12804;51.176;4.452;2023-04-03T06:23:23;3.40;99.90
24686;DHT22;12804;51.176;4.452;2023-04-03T06:25:49;3.40;99.90
24686;DHT22;12804;51.176;4.452;2023-04-03T06:28:15;3.40;99.90
24686;DHT22;12804;51.176;4.452;2023-04-03T06:30:41;3.50;99.90
24686;DHT22;12804;51.176;4.452;2023-04-03T06:33:06;3.50;99.90
24686;DHT22;12804;51.176;4.452;2023-04-03T06:35:32;3.60;99.90
24686;DHT22;12804;51.176;4.452;2023-04-03T06:38:00;3.60;99.90
24686;DHT22;12804;51.176;4.452;2023-04-03T06:40:26;3.70;99.90
24686;DHT22;12804;51.176;4.452;2023-04-03T06:42:52;3.70;99.90
24686;DHT22;12804;51.176;4.452;2023-04-03T06:45:19;3.80;99.90
24686;DHT22;12804;51.176;4.452;2023-04-03T06:47:45;3.90;99.90
24686;DHT22;12804;51.176;4.452;2023-04-03T06:50:11;4.00;98.20
24686;DHT22;12804;51.176;4.452;2023-04-03T06:52:40;4.00;94.80
24686;DHT22;12804;51.176;4.452;2023-04-03T06:55:07;4.20;97.30
24686;DHT22;12804;51.176;4.452;2023-04-03T06:57:33;4.50;92.90
24686;DHT22;12804;51.176;4.452;2023-04-03T06:59:59;4.50;85.90
24686;DHT22;12804;51.176;4.452;2023-04-03T07:02:25;4.60;80.10
24686;DHT22;12804;51.176;4.452;2023-04-03T07:04:51;4.80;86.70
24686;DHT22;12804;51.176;4.452;2023-04-03T07:07:17;5.00;68.80
24686;DHT22;12804;51.176;4.452;2023-04-03T07:09:43;4.90;64.40
24686;DHT22;12804;51.176;4.452;2023-04-03T07:12:09;5.00;65.00
24686;DHT22;12804;51.176;4.452;2023-04-03T07:14:35;5.00;67.60
24686;DHT22;12804;51.176;4.452;2023-04-03T07:17:01;5.00;60.00
24686;DHT22;12804;51.176;4.452;2023-04-03T07:19:26;5.10;62.80
24686;DHT22;12804;51.176;4.452;2023-04-03T07:21:53;5.20;60.70
24686;DHT22;12804;51.176;4.452;2023-04-03T07:24:20;5.20;51.90
24686;DHT22;12804;51.176;4.452;2023-04-03T07:26:50;5.10;54.00
24686;DHT22;12804;51.176;4.452;2023-04-03T07:29:17;5.20;45.80
24686;DHT22;12804;51.176;4.452;2023-04-03T07:31:42;5.00;44.70
24686;DHT22;12804;51.176;4.452;2023-04-03T07:34:10;4.90;50.10
24686;DHT22;12804;51.176;4.452;2023-04-03T07:36:36;5.00;55.00
24686;DHT22;12804;51.176;4.452;2023-04-03T07:39:03;5.10;47.80
24686;DHT22;12804;51.176;4.452;2023-04-03T07:41:29;5.20;41.00
24686;DHT22;12804;51.176;4.452;2023-04-03T07:43:56;5.30;36.80
24686;DHT22;12804;51.176;4.452;2023-04-03T07:46:22;5.20;31.20
24686;DHT22;12804;51.176;4.452;2023-04-03T07:48:48;5.30;38.60
24686;DHT22;12804;51.176;4.452;2023-04-03T07:51:16;5.40;35.60
24686;DHT22;12804;51.176;4.452;2023-04-03T07:53:42;5.40;24.10
24686;DHT22;12804;51.176;4.452;2023-04-03T07:56:08;5.30;24.00
24686;DHT22;12804;51.176;4.452;2023-04-03T07:58:35;5.40;22.70
24686;DHT22;12804;51.176;4.452;2023-04-03T08:01:01;5.50;16.30
24686;DHT22;12804;51.176;4.452;2023-04-03T08:03:27;5.60;18.80
24686;DHT22;12804;51.176;4.452;2023-04-03T08:05:53;5.60;8.00
24686;DHT22;12804;51.176;4.452;2023-04-03T08:08:21;5.70;11.00
24686;DHT22;12804;51.176;4.452;2023-04-03T08:10:52;6.00;3.80
24686;DHT22;12804;51.176;4.452;2023-04-03T08:13:19;6.10;6.60
24686;DHT22;12804;51.176;4.452;2023-04-03T08:15:45;6.20;1.00
24686;DHT22;12804;51.176;4.452;2023-04-03T08:18:15;6.20;1.00
24686;DHT22;12804;51.176;4.452;2023-04-03T08:20:41;6.20;1.00
24686;DHT22;12804;51.176;4.452;2023-04-03T08:23:08;6.20;1.00
24686;DHT22;12804;51.176;4.452;2023-04-03T08:25:38;6.30;1.00
24686;DHT22;12804;51.176;4.452;2023-04-03T08:28:04;6.50;1.00
24686;DHT22;12804;51.176;4.452;2023-04-03T08:30:30;6.20;1.00
24686;DHT22;12804;51.176;4.452;2023-04-03T08:32:56;6.20;1.00
24686;DHT22;12804;51.176;4.452;2023-04-03T08:35:21;6.30;1.00
24686;DHT22;12804;51.176;4.452;2023-04-03T08:37:47;6.50;1.00
24686;DHT22;12804;51.176;4.452;2023-04-03T08:40:15;6.70;1.00
24686;DHT22;12804;51.176;4.452;2023-04-03T08:45:52;6.70;1.00
24686;DHT22;12804;51.176;4.452;2023-04-03T08:48:19;6.80;1.00
24686;DHT22;12804;51.176;4.452;2023-04-03T08:50:51;7.00;1.00
24686;DHT22;12804;51.176;4.452;2023-04-03T08:53:21;6.90;1.00
24686;DHT22;12804;51.176;4.452;2023-04-03T08:55:53;7.10;1.00
24686;DHT22;12804;51.176;4.452;2023-04-03T08:58:25;7.00;1.00
24686;DHT22;12804;51.176;4.452;2023-04-03T09:00:53;7.10;1.00
24686;DHT22;12804;51.176;4.452;2023-04-03T09:03:21;7.20;1.00
24686;DHT22;12804;51.176;4.452;2023-04-03T09:06:00;7.20;1.00
24686;DHT22;12804;51.176;4.452;2023-04-03T09:08:30;7.30;1.00
24686;DHT22;12804;51.176;4.452;2023-04-03T09:11:25;7.40;1.00
24686;DHT22;12804;51.176;4.452;2023-04-03T09:14:01;7.40;1.00
24686;DHT22;12804;51.176;4.452;2023-04-03T09:16:56;7.50;1.00
24686;DHT22;12804;51.176;4.452;2023-04-03T09:22:41;7.50;1.00
24686;DHT22;12804;51.176;4.452;2023-04-03T09:25:18;7.50;1.00
24686;DHT22;12804;51.176;4.452;2023-04-03T09:27:45;7.70;1.00
24686;DHT22;12804;51.176;4.452;2023-04-03T09:30:20;7.60;1.00
24686;DHT22;12804;51.176;4.452;2023-04-03T09:32:50;7.80;1.00
24686;DHT22;12804;51.176;4.452;2023-04-03T09:35:31;8.00;1.00
24686;DHT22;12804;51.176;4.452;2023-04-03T09:42:54;8.40;1.00
24686;DHT22;12804;51.176;4.452;2023-04-03T09:45:33;8.30;1.00
24686;DHT22;12804;51.176;4.452;2023-04-03T09:50:59;8.30;1.00
24686;DHT22;12804;51.176;4.452;2023-04-03T09:53:34;8.20;1.00
24686;DHT22;12804;51.176;4.452;2023-04-03T09:56:04;8.30;1.00
24686;DHT22;12804;51.176;4.452;2023-04-03T09:58:36;8.40;1.00
24686;DHT22;12804;51.176;4.452;2023-04-03T10:01:03;8.50;1.00
24686;DHT22;12804;51.176;4.452;2023-04-03T10:03:33;8.50;1.00
24686;DHT22;12804;51.176;4.452;2023-04-03T10:06:02;8.60;1.00
24686;DHT22;12804;51.176;4.452;2023-04-03T10:08:34;8.70;99.90
24686;DHT22;12804;51.176;4.452;2023-04-03T10:11:16;8.80;46.30
24686;DHT22;12804;51.176;4.452;2023-04-03T10:13:58;8.90;1.00
24686;DHT22;12804;51.176;4.452;2023-04-03T10:16:41;9.20;99.90
24686;DHT22;12804;51.176;4.452;2023-04-03T10:25:12;9.40;99.90
24686;DHT22;12804;51.176;4.452;2023-04-03T10:28:27;9.60;8.30
24686;DHT22;12804;51.176;4.452;2023-04-03T10:33:32;9.80;99.90
24686;DHT22;12804;51.176;4.452;2023-04-03T10:36:58;9.60;99.90
24686;DHT22;12804;51.176;4.452;2023-04-03T10:38:59;9.60;99.90
24686;DHT22;12804;51.176;4.452;2023-04-03T10:46:53;11.60;1.00
24686;DHT22;12804;51.176;4.452;2023-04-03T10:52:22;12.30;1.00
24686;DHT22;12804;51.176;4.452;2023-04-03T10:55:09;12.90;99.90
24686;DHT22;12804;51.176;4.452;2023-04-03T10:57:40;12.30;1.00
24686;DHT22;12804;51.176;4.452;2023-04-03T11:00:16;12.40;1.00
24686;DHT22;12804;51.176;4.452;2023-04-03T11:08:33;12.80;99.90
24686;DHT22;12804;51.176;4.452;2023-04-03T11:11:07;13.00;99.90
24686;DHT22;12804;51.176;4.452;2023-04-03T11:13:48;13.20;24.80
24686;DHT22;12804;51.176;4.452;2023-04-03T11:16:23;13.80;99.90
24686;DHT22;12804;51.176;4.452;2023-04-03T11:18:56;14.10;1.00
24686;DHT22;12804;51.176;4.452;2023-04-03T11:21:28;14.70;1.00
24686;DHT22;12804;51.176;4.452;2023-04-03T11:23:57;14.20;1.00
24686;DHT22;12804;51.176;4.452;2023-04-03T11:26:27;13.50;1.00
24686;DHT22;12804;51.176;4.452;2023-04-03T11:29:12;13.30;1.00
24686;DHT22;12804;51.176;4.452;2023-04-03T11:31:56;13.60;1.00
24686;DHT22;12804;51.176;4.452;2023-04-03T11:34:39;13.80;1.00
24686;DHT22;12804;51.176;4.452;2023-04-03T11:37:20;14.60;1.00
24686;DHT22;12804;51.176;4.452;2023-04-03T11:39:56;15.80;1.00
24686;DHT22;12804;51.176;4.452;2023-04-03T11:42:34;15.50;1.00
24686;DHT22;12804;51.176;4.452;2023-04-03T11:50:45;14.20;1.00
24686;DHT22;12804;51.176;4.452;2023-04-03T11:55:44;15.80;99.90
24686;DHT22;12804;51.176;4.452;2023-04-03T11:58:17;15.80;99.90
24686;DHT22;12804;51.176;4.452;2023-04-03T12:16:29;15.90;99.90
24686;DHT22;12804;51.176;4.452;2023-04-03T12:18:58;16.30;99.90
24686;DHT22;12804;51.176;4.452;2023-04-03T12:29:10;16.80;99.90
24686;DHT22;12804;51.176;4.452;2023-04-03T12:31:49;17.50;99.90
24686;DHT22;12804;51.176;4.452;2023-04-03T12:42:29;16.80;99.90
24686;DHT22;12804;51.176;4.452;2023-04-03T12:45:12;17.50;99.90
24686;DHT22;12804;51.176;4.452;2023-04-03T12:47:43;16.40;99.90
24686;DHT22;12804;51.176;4.452;2023-04-03T12:50:20;16.20;99.90
24686;DHT22;12804;51.176;4.452;2023-04-03T12:53:00;16.30;99.90
24686;DHT22;12804;51.176;4.452;2023-04-03T12:55:28;16.20;99.90
24686;DHT22;12804;51.176;4.452;2023-04-03T12:57:54;15.50;99.90
24686;DHT22;12804;51.176;4.452;2023-04-03T13:00:28;15.10;99.90
24686;DHT22;12804;51.176;4.452;2023-04-03T13:02:54;16.10;99.90
24686;DHT22;12804;51.176;4.452;2023-04-03T13:05:22;16.30;99.90
24686;DHT22;12804;51.176;4.452;2023-04-03T13:07:53;16.00;99.90
24686;DHT22;12804;51.176;4.452;2023-04-03T13:10:22;16.00;99.90
24686;DHT22;12804;51.176;4.452;2023-04-03T13:12:52;16.60;99.90
24686;DHT22;12804;51.176;4.452;2023-04-03T13:15:29;17.30;99.90
24686;DHT22;12804;51.176;4.452;2023-04-03T13:17:56;17.70;99.90
24686;DHT22;12804;51.176;4.452;2023-04-03T13:20:29;19.00;99.90
24686;DHT22;12804;51.176;4.452;2023-04-03T13:25:28;18.10;99.90
24686;DHT22;12804;51.176;4.452;2023-04-03T13:27:56;18.10;99.90
24686;DHT22;12804;51.176;4.452;2023-04-03T13:30:30;17.40;99.90
24686;DHT22;12804;51.176;4.452;2023-04-03T13:32:58;18.50;99.90
24686;DHT22;12804;51.176;4.452;2023-04-03T13:35:37;17.70;99.90
24686;DHT22;12804;51.176;4.452;2023-04-03T13:38:28;17.70;99.90
24686;DHT22;12804;51.176;4.452;2023-04-03T13:40:58;18.80;99.90
24686;DHT22;12804;51.176;4.452;2023-04-03T13:43:32;18.10;99.90
24686;DHT22;12804;51.176;4.452;2023-04-03T13:48:48;20.10;99.90
24686;DHT22;12804;51.176;4.452;2023-04-03T13:53:56;21.70;99.90
24686;DHT22;12804;51.176;4.452;2023-04-03T13:56:38;22.50;99.90
24686;DHT22;12804;51.176;4.452;2023-04-03T14:04:20;22.50;99.90
24686;DHT22;12804;51.176;4.452;2023-04-03T14:06:47;22.30;99.90
24686;DHT22;12804;51.176;4.452;2023-04-03T14:09:13;23.40;99.90
24686;DHT22;12804;51.176;4.452;2023-04-03T14:11:40;25.80;99.90
24686;DHT22;12804;51.176;4.452;2023-04-03T14:14:17;26.90;99.90
24686;DHT22;12804;51.176;4.452;2023-04-03T14:16:47;26.90;99.90
24686;DHT22;12804;51.176;4.452;2023-04-03T14:19:28;25.50;99.90
24686;DHT22;12804;51.176;4.452;2023-04-03T14:21:55;25.40;99.90
24686;DHT22;12804;51.176;4.452;2023-04-03T14:24:22;24.70;99.90
24686;DHT22;12804;51.176;4.452;2023-04-03T14:26:49;23.60;99.90
24686;DHT22;12804;51.176;4.452;2023-04-03T14:29:16;22.00;99.90
24686;DHT22;12804;51.176;4.452;2023-04-03T14:31:43;21.90;99.90
24686;DHT22;12804;51.176;4.452;2023-04-03T14:34:11;22.70;99.90
24686;DHT22;12804;51.176;4.452;2023-04-03T14:36:39;22.30;99.90
24686;DHT22;12804;51.176;4.452;2023-04-03T14:39:08;24.10;99.90
24686;DHT22;12804;51.176;4.452;2023-04-03T14:41:36;25.20;99.90
24686;DHT22;12804;51.176;4.452;2023-04-03T14:44:02;24.40;99.90
24686;DHT22;12804;51.176;4.452;2023-04-03T14:46:34;23.50;99.90
24686;DHT22;12804;51.176;4.452;2023-04-03T14:49:00;23.20;99.90
24686;DHT22;12804;51.176;4.452;2023-04-03T14:51:26;23.30;99.90
24686;DHT22;12804;51.176;4.452;2023-04-03T14:53:52;23.30;99.90
24686;DHT22;12804;51.176;4.452;2023-04-03T14:56:23;22.90;99.90
24686;DHT22;12804;51.176;4.452;2023-04-03T14:58:53;22.10;99.90
24686;DHT22;12804;51.176;4.452;2023-04-03T15:01:21;22.20;99.90
24686;DHT22;12804;51.176;4.452;2023-04-03T15:03:46;23.70;99.90
24686;DHT22;12804;51.176;4.452;2023-04-03T15:06:13;24.50;99.90
24686;DHT22;12804;51.176;4.452;2023-04-03T15:08:40;24.40;99.90
24686;DHT22;12804;51.176;4.452;2023-04-03T15:11:09;24.20;99.90
24686;DHT22;12804;51.176;4.452;2023-04-03T15:13:35;24.10;99.90
24686;DHT22;12804;51.176;4.452;2023-04-03T15:16:02;23.80;99.90
24686;DHT22;12804;51.176;4.452;2023-04-03T15:18:33;24.40;99.90
24686;DHT22;12804;51.176;4.452;2023-04-03T15:21:01;24.60;99.90
24686;DHT22;12804;51.176;4.452;2023-04-03T15:23:27;24.20;99.90
24686;DHT22;12804;51.176;4.452;2023-04-03T15:25:55;24.50;99.90
24686;DHT22;12804;51.176;4.452;2023-04-03T15:28:22;23.60;99.90
24686;DHT22;12804;51.176;4.452;2023-04-03T15:30:48;23.00;99.90
24686;DHT22;12804;51.176;4.452;2023-04-03T15:33:15;22.70;99.90
24686;DHT22;12804;51.176;4.452;2023-04-03T15:35:42;23.10;99.90
24686;DHT22;12804;51.176;4.452;2023-04-03T15:38:08;22.60;99.90
24686;DHT22;12804;51.176;4.452;2023-04-03T15:40:34;22.90;99.90
24686;DHT22;12804;51.176;4.452;2023-04-03T15:43:00;22.80;99.90
24686;DHT22;12804;51.176;4.452;2023-04-03T15:45:29;22.70;99.90
24686;DHT22;12804;51.176;4.452;2023-04-03T15:47:56;24.50;99.90
24686;DHT22;12804;51.176;4.452;2023-04-03T15:50:22;23.50;99.90
24686;DHT22;12804;51.176;4.452;2023-04-03T15:52:51;22.80;99.90
24686;DHT22;12804;51.176;4.452;2023-04-03T15:55:25;22.40;99.90
24686;DHT22;12804;51.176;4.452;2023-04-03T15:57:52;22.30;99.90
24686;DHT22;12804;51.176;4.452;2023-04-03T16:00:19;21.80;99.90
24686;DHT22;12804;51.176;4.452;2023-04-03T16:02:46;21.20;99.90
24686;DHT22;12804;51.176;4.452;2023-04-03T16:05:13;20.90;99.90
24686;DHT22;12804;51.176;4.452;2023-04-03T16:07:41;21.70;99.90
24686;DHT22;12804;51.176;4.452;2023-04-03T16:10:08;21.40;99.90
24686;DHT22;12804;51.176;4.452;2023-04-03T16:12:35;19.90;99.90
24686;DHT22;12804;51.176;4.452;2023-04-03T16:15:00;18.10;99.90
24686;DHT22;12804;51.176;4.452;2023-04-03T16:17:27;16.90;99.90
24686;DHT22;12804;51.176;4.452;2023-04-03T16:19:54;16.00;99.90
24686;DHT22;12804;51.176;4.452;2023-04-03T16:22:21;15.00;99.90
24686;DHT22;12804;51.176;4.452;2023-04-03T16:24:49;13.90;99.90
24686;DHT22;12804;51.176;4.452;2023-04-03T16:27:15;13.20;99.90
24686;DHT22;12804;51.176;4.452;2023-04-03T16:29:41;12.90;99.90
24686;DHT22;12804;51.176;4.452;2023-04-03T16:32:07;12.70;99.90
24686;DHT22;12804;51.176;4.452;2023-04-03T16:34:36;12.70;99.90
24686;DHT22;12804;51.176;4.452;2023-04-03T16:37:02;12.60;99.90
24686;DHT22;12804;51.176;4.452;2023-04-03T16:39:28;12.50;99.90
24686;DHT22;12804;51.176;4.452;2023-04-03T16:41:54;12.20;99.90
24686;DHT22;12804;51.176;4.452;2023-04-03T16:44:20;12.20;99.90
24686;DHT22;12804;51.176;4.452;2023-04-03T16:46:46;12.10;99.90
24686;DHT22;12804;51.176;4.452;2023-04-03T16:49:12;11.80;99.90
24686;DHT22;12804;51.176;4.452;2023-04-03T16:51:38;11.80;99.90
24686;DHT22;12804;51.176;4.452;2023-04-03T16:54:04;11.70;99.90
24686;DHT22;12804;51.176;4.452;2023-04-03T16:56:30;11.60;99.90
24686;DHT22;12804;51.176;4.452;2023-04-03T16:58:55;11.50;99.90
24686;DHT22;12804;51.176;4.452;2023-04-03T17:01:22;11.40;1.00
24686;DHT22;12804;51.176;4.452;2023-04-03T17:03:48;11.50;1.00
24686;DHT22;12804;51.176;4.452;2023-04-03T17:06:19;11.60;1.00
24686;DHT22;12804;51.176;4.452;2023-04-03T17:08:48;11.60;1.00
24686;DHT22;12804;51.176;4.452;2023-04-03T17:11:29;11.50;1.00
24686;DHT22;12804;51.176;4.452;2023-04-03T17:13:58;11.20;1.00
24686;DHT22;12804;51.176;4.452;2023-04-03T17:16:24;11.10;1.00
24686;DHT22;12804;51.176;4.452;2023-04-03T17:18:51;10.90;1.00
24686;DHT22;12804;51.176;4.452;2023-04-03T17:21:17;10.80;1.00
24686;DHT22;12804;51.176;4.452;2023-04-03T17:23:48;10.70;1.00
24686;DHT22;12804;51.176;4.452;2023-04-03T17:26:15;10.60;1.00
24686;DHT22;12804;51.176;4.452;2023-04-03T17:28:40;10.50;1.00
24686;DHT22;12804;51.176;4.452;2023-04-03T17:31:06;10.50;1.00